Time;durP1;ratioP1;P1;durP2;ratioP2;P2;SDS_P1;SDS_P2;PMS_P1;PMS_P2;Temp;Humidity;BMP_temperature;BMP_pressure;BME280_temperature;BME280_humidity;BME280_pressure;Samples;Min_cycle;Max_cycle;Signal;HPM_P1;HPM_P2
2022/08/02 00:00:25;;;;;;;3.50;1.40;;;;;;;18.37;63.97;99138.41;106270;1274;22558;-85
2022/08/02 00:03:09;;;;;;;4.10;1.50;;;;;;;18.32;64.17;99138.41;106452;1274;25490;-83
2022/08/02 00:05:54;;;;;;;4.70;1.70;;;;;;;18.31;64.12;99135.11;106108;1274;22582;-85
2022/08/02 00:08:34;;;;;;;4.20;1.60;;;;;;;18.31;64.23;99130.72;106255;1274;24266;-83
2022/08/02 00:11:13;;;;;;;3.60;1.80;;;;;;;18.33;64.25;99134.02;106238;1274;22703;-85
2022/08/02 00:13:47;;;;;;;4.50;1.50;;;;;;;18.36;64.41;99134.55;106224;1274;22552;-83
2022/08/02 00:16:45;;;;;;;4.20;1.30;;;;;;;18.41;64.30;99131.71;106202;1274;24536;-84
2022/08/02 00:19:37;;;;;;;2.70;1.00;;;;;;;18.46;64.14;99131.39;106104;1274;22532;-83
2022/08/02 00:22:30;;;;;;;3.50;1.10;;;;;;;18.49;64.38;99130.31;106082;1274;22688;-89
2022/08/02 00:24:59;;;;;;;2.80;1.20;;;;;;;18.50;64.33;99132.77;106247;1274;25537;-83
2022/08/02 00:27:34;;;;;;;4.20;1.60;;;;;;;18.49;64.38;99135.45;106241;1274;22532;-84
2022/08/02 00:30:14;;;;;;;3.70;1.60;;;;;;;18.48;64.36;99134.43;106306;1272;24066;-86
2022/08/02 00:32:54;;;;;;;3.90;1.40;;;;;;;18.47;64.48;99136.83;106134;1274;22768;-85
2022/08/02 00:35:52;;;;;;;;;;;;;;;;;;;;;
2022/08/02 00:38:51;;;;;;;2.60;1.20;;;;;;;18.49;64.56;99134.80;106199;1274;24060;-85
2022/08/02 00:41:57;;;;;;;2.60;1.30;;;;;;;18.49;64.44;99135.92;106400;1271;22591;-85
2022/08/02 00:44:50;;;;;;;3.90;1.40;;;;;;;18.46;64.60;99138.21;106430;1271;24182;-84
2022/08/02 00:47:49;;;;;;;4.50;1.70;;;;;;;18.44;64.61;99142.92;106353;1274;24210;-83
2022/08/02 00:50:27;;;;;;;4.70;1.40;;;;;;;18.41;64.58;99147.80;106159;1274;22672;-83
2022/08/02 00:53:21;;;;;;;;;;;;;;;;;;;;;
2022/08/02 00:57:29;;;;;;;3.40;1.30;;;;;;;18.39;64.74;99144.61;106426;1273;23989;-87
2022/08/02 01:00:19;;;;;;;;;;;;;;;;;;;;;
2022/08/02 01:03:25;;;;;;;;;;;;;;;;;;;;;
2022/08/02 01:07:17;;;;;;;;;;;;;;;;;;;;;
2022/08/02 01:10:04;;;;;;;;;;;;;;;;;;;;;
2022/08/02 01:13:07;;;;;;;4.50;1.40;;;;;;;18.25;64.89;99140.19;105846;1280;22536;-88
2022/08/02 01:16:17;;;;;;;;;;;;;;;;;;;;;
2022/08/02 01:19:41;;;;;;;3.40;1.10;;;;;;;18.22;65.01;99143.81;105828;1280;25298;-84
2022/08/02 01:23:06;;;;;;;3.20;1.30;;;;;;;18.19;65.00;99141.56;105048;1285;25475;-84
2022/08/02 01:26:25;;;;;;;4.00;1.40;;;;;;;18.13;65.03;99146.30;105225;1285;25363;-83
2022/08/02 01:29:26;;;;;;;3.40;1.10;;;;;;;18.09;65.12;99151.78;105182;1285;25596;-83
2022/08/02 01:32:57;;;;;;;3.20;1.30;;;;;;;18.07;65.28;99152.13;105087;1285;22598;-85
2022/08/02 01:35:32;;;;;;;4.00;1.20;;;;;;;18.06;65.32;99159.27;105155;1280;25479;-84
2022/08/02 01:38:51;;;;;;;4.20;1.30;;;;;;;18.02;65.34;99155.51;105735;1280;24415;-84
2022/08/02 01:41:24;;;;;;;6.20;1.40;;;;;;;18.01;65.38;99160.13;105830;1280;22839;-83
2022/08/02 01:43:58;;;;;;;5.60;1.50;;;;;;;17.98;65.48;99159.85;105640;1280;22629;-84
2022/08/02 01:46:30;;;;;;;3.80;1.80;;;;;;;17.98;65.44;99153.63;105745;1280;22616;-84
2022/08/02 01:49:12;;;;;;;4.10;1.40;;;;;;;17.94;65.48;99155.25;105732;1280;22768;-83
2022/08/02 01:54:47;;;;;;;3.80;1.50;;;;;;;17.89;65.62;99159.41;105874;1279;22970;-83
2022/08/02 01:57:20;;;;;;;5.80;1.80;;;;;;;17.88;65.75;99162.04;105805;1280;24390;-85
2022/08/02 02:00:07;;;;;;;3.30;1.70;;;;;;;17.85;65.70;99163.34;106252;1274;22696;-83
2022/08/02 02:02:43;;;;;;;5.40;1.70;;;;;;;17.85;65.75;99162.16;106091;1274;22529;-81
2022/08/02 02:05:22;;;;;;;3.90;1.50;;;;;;;17.82;65.81;99159.15;106059;1274;24164;-84
2022/08/02 02:07:54;;;;;;;4.30;1.50;;;;;;;17.82;65.84;99161.67;106114;1274;24408;-85
2022/08/02 02:10:30;;;;;;;4.20;1.70;;;;;;;17.85;65.89;99163.55;106376;1274;22690;-87
2022/08/02 02:13:19;;;;;;;6.30;1.60;;;;;;;17.86;65.88;99164.59;106415;1271;22692;-82
2022/08/02 02:15:57;;;;;;;4.60;1.80;;;;;;;17.82;65.92;99166.02;106440;1271;22611;-83
2022/08/02 02:18:44;;;;;;;3.10;1.30;;;;;;;17.77;65.95;99166.52;106344;1274;24395;-87
2022/08/02 02:21:18;;;;;;;4.50;1.40;;;;;;;17.71;66.05;99161.73;106392;1274;22548;-83
2022/08/02 02:23:49;;;;;;;4.40;1.70;;;;;;;17.64;66.06;99156.08;106393;1274;22690;-88
2022/08/02 02:26:24;;;;;;;5.20;1.80;;;;;;;17.60;66.15;99157.45;106408;1274;23264;-83
2022/08/02 02:29:00;;;;;;;4.90;1.90;;;;;;;17.55;66.17;99155.38;106390;1274;22553;-83
2022/08/02 02:31:45;;;;;;;5.50;2.00;;;;;;;17.50;66.23;99155.13;106402;1274;25242;-88
2022/08/02 02:34:32;;;;;;;5.00;1.60;;;;;;;17.47;66.35;99154.92;106343;1274;24278;-89
2022/08/02 02:37:10;;;;;;;4.40;1.60;;;;;;;17.43;66.40;99156.17;106422;1271;22754;-87
2022/08/02 02:39:47;;;;;;;4.90;1.90;;;;;;;17.41;66.38;99161.63;106438;1272;25536;-84
2022/08/02 02:42:21;;;;;;;5.30;2.00;;;;;;;17.39;66.51;99159.99;106424;1273;25551;-83
2022/08/02 02:45:05;;;;;;;6.30;1.90;;;;;;;17.33;66.50;99162.59;106429;1274;22550;-87
2022/08/02 02:47:33;;;;;;;4.30;1.90;;;;;;;17.30;66.62;99166.64;106300;1274;24456;-84
2022/08/02 02:50:18;;;;;;;5.00;1.90;;;;;;;17.27;66.61;99161.04;106450;1272;22573;-88
2022/08/02 02:52:52;;;;;;;6.70;2.10;;;;;;;17.25;66.73;99161.94;106182;1274;22658;-86
2022/08/02 02:55:24;;;;;;;5.50;1.90;;;;;;;17.22;66.72;99163.44;106358;1274;25439;-83
2022/08/02 02:58:00;;;;;;;6.20;2.10;;;;;;;17.21;66.75;99161.43;106320;1274;22704;-84
2022/08/02 03:03:34;;;;;;;3.90;1.90;;;;;;;17.17;66.90;99164.33;106208;1272;25305;-84
2022/08/02 03:06:17;;;;;;;4.90;1.90;;;;;;;17.16;67.01;99163.33;106403;1274;22693;-84
2022/08/02 03:08:52;;;;;;;6.20;2.10;;;;;;;17.17;67.09;99165.77;106440;1274;22527;-83
2022/08/02 03:11:28;;;;;;;5.60;1.90;;;;;;;17.19;67.11;99167.36;106151;1274;22531;-86
2022/08/02 03:14:00;;;;;;;4.70;2.10;;;;;;;17.20;67.11;99160.79;106436;1274;25445;-82
2022/08/02 03:16:45;;;;;;;4.70;2.00;;;;;;;17.22;67.11;99162.92;106387;1274;24409;-84
2022/08/02 03:19:20;;;;;;;4.30;1.90;;;;;;;17.22;67.11;99159.69;106197;1274;22544;-84
2022/08/02 03:21:58;;;;;;;6.10;2.50;;;;;;;17.21;67.18;99161.66;106160;1274;22774;-86
2022/08/02 03:24:39;;;;;;;5.80;2.10;;;;;;;17.17;67.20;99158.92;106364;1274;24168;-84
2022/08/02 03:27:11;;;;;;;5.10;2.10;;;;;;;17.16;67.26;99162.95;106138;1274;22668;-83
2022/08/02 03:29:47;;;;;;;4.70;1.80;;;;;;;17.17;67.29;99165.56;106378;1274;22788;-84
2022/08/02 03:32:24;;;;;;;7.30;2.20;;;;;;;17.19;67.29;99170.84;106409;1274;22823;-90
2022/08/02 03:35:06;;;;;;;5.70;2.00;;;;;;;17.20;67.34;99172.39;106132;1274;22550;-83
2022/08/02 03:37:57;;;;;;;5.60;2.60;;;;;;;17.21;67.43;99176.52;106440;1274;23283;-83
2022/08/02 03:40:41;;;;;;;4.10;2.30;;;;;;;17.22;67.45;99174.80;106396;1274;25570;-83
2022/08/02 03:43:21;;;;;;;5.00;2.40;;;;;;;17.22;67.43;99176.09;106383;1274;22701;-84
2022/08/02 03:46:07;;;;;;;5.80;2.30;;;;;;;17.23;67.56;99181.56;106407;1274;25222;-83
2022/08/02 03:48:49;;;;;;;6.20;2.40;;;;;;;17.27;67.62;99184.11;106356;1272;22681;-85
2022/08/02 03:51:37;;;;;;;5.90;2.10;;;;;;;17.24;67.56;99187.73;106178;1274;22844;-86
2022/08/02 03:54:24;;;;;;;5.00;2.00;;;;;;;17.25;67.64;99191.83;106404;1274;24252;-84
2022/08/02 03:57:08;;;;;;;5.60;2.40;;;;;;;17.25;67.69;99196.52;106196;1274;22534;-88
2022/08/02 03:59:45;;;;;;;5.80;2.40;;;;;;;17.22;67.60;99201.83;106367;1274;24244;-84
2022/08/02 04:02:29;;;;;;;6.20;2.30;;;;;;;17.22;67.72;99203.58;106168;1274;25336;-85
2022/08/02 04:05:18;;;;;;;5.40;1.80;;;;;;;17.29;67.83;99204.23;106141;1274;22708;-83
2022/08/02 04:07:59;;;;;;;5.10;1.90;;;;;;;17.34;67.74;99208.90;106316;1274;22524;-83
2022/08/02 04:14:08;;;;;;;7.10;2.60;;;;;;;17.34;67.81;99217.42;106415;1274;24359;-83
2022/08/02 04:17:13;;;;;;;8.00;2.60;;;;;;;17.38;67.85;99220.73;106414;1274;22538;-83
2022/08/02 04:20:21;;;;;;;5.90;2.40;;;;;;;17.48;67.78;99226.55;106451;1274;25599;-85
2022/08/02 04:23:05;;;;;;;5.90;2.30;;;;;;;17.59;67.95;99228.61;106305;1274;24693;-86
2022/08/02 04:25:46;;;;;;;5.40;2.30;;;;;;;17.67;67.93;99231.83;106301;1272;22534;-85
2022/08/02 04:28:51;;;;;;;5.30;2.70;;;;;;;17.69;67.89;99234.80;106390;1274;25278;-83
2022/08/02 04:31:54;;;;;;;5.90;2.50;;;;;;;17.80;67.97;99232.66;106409;1274;25347;-83
2022/08/02 04:34:38;;;;;;;7.30;2.20;;;;;;;17.90;67.83;99234.45;106469;1274;25559;-82
2022/08/02 04:37:39;;;;;;;;;;;;;;;;;;;;;
2022/08/02 04:40:54;;;;;;;6.30;2.10;;;;;;;18.03;67.88;99239.89;106454;1274;25294;-83
2022/08/02 04:43:28;;;;;;;6.30;3.00;;;;;;;18.12;67.91;99240.25;106345;1274;22534;-87
2022/08/02 04:46:07;;;;;;;7.90;2.90;;;;;;;18.16;67.77;99240.79;106383;1274;25550;-83
2022/08/02 04:48:48;;;;;;;6.40;2.70;;;;;;;18.21;67.84;99238.17;106397;1274;25240;-84
2022/08/02 04:52:14;;;;;;;;;;;;;;;;;;;;;
2022/08/02 04:55:06;;;;;;;6.50;2.40;;;;;;;18.47;67.81;99237.83;106288;1274;24354;-85
2022/08/02 04:57:56;;;;;;;5.10;2.30;;;;;;;18.59;67.98;99239.23;106399;1274;22621;-85
2022/08/02 05:01:01;;;;;;;7.00;2.40;;;;;;;18.72;67.68;99241.99;106369;1274;24240;-84
2022/08/02 05:04:14;;;;;;;7.30;2.60;;;;;;;18.85;67.70;99246.49;106204;1274;22843;-87
2022/08/02 05:07:04;;;;;;;5.10;2.20;;;;;;;18.99;67.55;99244.70;106371;1271;22535;-83
2022/08/02 05:10:10;;;;;;;4.50;1.70;;;;;;;19.04;67.57;99247.95;106270;1274;25378;-83
2022/08/02 05:13:16;;;;;;;;;;;;;;;;;;;;;
2022/08/02 05:16:03;;;;;;;6.10;2.30;;;;;;;19.23;67.57;99253.23;106407;1274;22601;-84
2022/08/02 05:19:31;;;;;;;;;;;;;;;;;;;;;
2022/08/02 05:22:32;;;;;;;5.10;2.20;;;;;;;19.33;67.26;99265.15;106387;1274;22606;-84
2022/08/02 05:25:22;;;;;;;;;;;;;;;;;;;;;
2022/08/02 05:28:33;;;;;;;5.60;2.20;;;;;;;19.58;67.30;99264.15;103962;1274;3178782;-83
2022/08/02 05:31:58;;;;;;;7.70;2.70;;;;;;;19.80;67.19;99271.52;106237;1274;23896;-84
2022/08/02 05:35:54;;;;;;;5.50;2.10;;;;;;;20.08;66.85;99277.26;106416;1274;22593;-86
2022/08/02 05:38:49;;;;;;;5.70;2.20;;;;;;;20.14;66.85;99279.06;105939;1277;22563;-84
2022/08/02 05:41:37;;;;;;;6.60;2.30;;;;;;;20.13;67.06;99283.69;105840;1280;22740;-84
2022/08/02 05:44:10;;;;;;;5.10;2.50;;;;;;;20.19;67.03;99283.94;105892;1278;22537;-85
2022/08/02 05:47:03;;;;;;;6.70;2.40;;;;;;;20.27;66.99;99284.04;105916;1277;22696;-86
2022/08/02 05:50:24;;;;;;;4.80;2.90;;;;;;;20.29;66.99;99288.17;105972;1277;24493;-86
2022/08/02 05:53:13;;;;;;;6.80;2.70;;;;;;;20.30;67.05;99288.35;105850;1277;24411;-85
2022/08/02 05:56:18;;;;;;;5.90;2.30;;;;;;;20.42;66.91;99289.98;105975;1277;22553;-83
2022/08/02 05:59:22;;;;;;;6.40;2.30;;;;;;;20.51;66.90;99297.37;105670;1277;22619;-84
2022/08/02 06:02:25;;;;;;;6.10;2.10;;;;;;;20.67;66.92;99297.95;105768;1280;23181;-84
2022/08/02 06:05:46;;;;;;;8.90;2.40;;;;;;;20.77;66.51;99294.30;106151;1279;24223;-83
2022/08/02 06:08:44;;;;;;;4.80;2.00;;;;;;;20.93;66.89;99299.41;105959;1280;22977;-84
2022/08/02 06:12:01;;;;;;;6.00;2.20;;;;;;;21.25;66.51;99295.64;106025;1278;23734;-87
2022/08/02 06:14:54;;;;;;;6.50;2.00;;;;;;;21.23;66.15;99291.60;105959;1275;25647;-84
2022/08/02 06:17:33;;;;;;;4.70;1.70;;;;;;;21.26;66.66;99288.54;106278;1274;24198;-84
2022/08/02 06:20:12;;;;;;;4.90;1.90;;;;;;;21.35;66.23;99284.70;106201;1274;22587;-86
2022/08/02 06:22:48;;;;;;;5.10;1.50;;;;;;;21.24;66.23;99284.09;106271;1274;24278;-84
2022/08/02 06:25:26;;;;;;;7.20;2.50;;;;;;;21.28;66.17;99283.11;106550;1274;25356;-84
2022/08/02 06:27:56;;;;;;;6.20;2.00;;;;;;;21.28;66.24;99291.27;106403;1274;24291;-85
2022/08/02 06:30:26;;;;;;;6.90;2.30;;;;;;;21.24;66.07;99285.35;106367;1274;22612;-85
2022/08/02 06:32:56;;;;;;;5.40;1.80;;;;;;;21.19;66.19;99283.45;106118;1277;23643;-86
2022/08/02 06:35:53;;;;;;;6.40;2.40;;;;;;;21.05;65.97;99288.42;106106;1274;24230;-84
2022/08/02 06:38:38;;;;;;;5.10;1.60;;;;;;;21.13;66.19;99293.11;106286;1274;22772;-86
2022/08/02 06:41:18;;;;;;;5.40;1.70;;;;;;;21.38;66.20;99291.59;106272;1274;24407;-86
2022/08/02 06:43:56;;;;;;;4.80;1.60;;;;;;;21.66;66.31;99295.27;106293;1274;24225;-86
2022/08/02 06:46:38;;;;;;;4.50;1.40;;;;;;;21.90;65.83;99296.00;106262;1274;24405;-84
2022/08/02 06:49:07;;;;;;;5.60;1.40;;;;;;;21.76;65.52;99298.08;106299;1274;24225;-87
2022/08/02 06:51:40;;;;;;;4.70;1.50;;;;;;;21.91;65.83;99298.97;106432;1274;23178;-86
2022/08/02 06:54:11;;;;;;;5.00;1.40;;;;;;;22.09;65.78;99300.96;106259;1274;24207;-87
2022/08/02 06:56:45;;;;;;;6.70;1.90;;;;;;;22.26;65.65;99303.33;106129;1274;24250;-84
2022/08/02 06:59:20;;;;;;;4.90;1.30;;;;;;;22.36;65.26;99301.09;106146;1274;25464;-84
2022/08/02 07:01:48;;;;;;;4.10;1.40;;;;;;;22.39;64.86;99306.95;106121;1275;25534;-85
2022/08/02 07:04:17;;;;;;;4.40;1.50;;;;;;;22.42;64.87;99308.06;106393;1274;25763;-85
2022/08/02 07:06:49;;;;;;;4.40;1.30;;;;;;;22.47;64.81;99304.97;106109;1274;25558;-89
2022/08/02 07:09:21;;;;;;;3.90;1.20;;;;;;;22.46;64.59;99306.67;106246;1274;24411;-84
2022/08/02 07:11:56;;;;;;;4.70;1.60;;;;;;;22.40;64.46;99305.73;106325;1274;22529;-84
2022/08/02 07:14:40;;;;;;;6.10;1.40;;;;;;;22.37;64.67;99302.41;106185;1274;22544;-88
2022/08/02 07:17:15;;;;;;;6.10;1.80;;;;;;;22.58;65.02;99298.05;106117;1275;22528;-88
2022/08/02 07:19:44;;;;;;;3.50;1.10;;;;;;;22.81;64.62;99298.19;106148;1274;22557;-85
2022/08/02 07:22:18;;;;;;;4.80;1.20;;;;;;;22.96;64.28;99302.37;106369;1274;24266;-90
2022/08/02 07:24:59;;;;;;;2.90;1.00;;;;;;;23.08;64.35;99303.69;106257;1274;22722;-86
2022/08/02 07:27:37;;;;;;;5.90;1.20;;;;;;;23.26;64.41;99298.70;106319;1274;22678;-85
2022/08/02 07:30:16;;;;;;;4.50;1.20;;;;;;;23.37;63.99;99300.58;106065;1274;25292;-91
2022/08/02 07:32:55;;;;;;;4.00;1.20;;;;;;;23.40;63.85;99296.61;106176;1274;25378;-87
2022/08/02 07:35:25;;;;;;;4.60;1.10;;;;;;;23.56;63.91;99295.65;106363;1274;22567;-87
2022/08/02 07:37:56;;;;;;;5.40;1.40;;;;;;;23.59;63.58;99295.73;106309;1274;22545;-87
2022/08/02 07:40:33;;;;;;;7.30;1.60;;;;;;;23.63;63.69;99294.78;106587;1274;24323;-90
2022/08/02 07:43:08;;;;;;;3.90;1.20;;;;;;;23.76;63.64;99290.80;106074;1277;22531;-88
2022/08/02 07:45:46;;;;;;;4.40;1.40;;;;;;;23.80;63.54;99289.23;106328;1274;25355;-88
2022/08/02 07:48:24;;;;;;;5.30;1.10;;;;;;;23.95;63.55;99283.95;106292;1274;25230;-85
2022/08/02 07:51:09;;;;;;;2.40;1.00;;;;;;;24.00;63.05;99286.89;106363;1274;25362;-85
2022/08/02 07:53:39;;;;;;;10.20;1.70;;;;;;;23.95;62.84;99286.77;106058;1275;22553;-89
2022/08/02 07:56:17;;;;;;;3.30;1.20;;;;;;;23.93;63.29;99292.36;106344;1274;25288;-85
2022/08/02 07:58:52;;;;;;;6.30;1.10;;;;;;;24.09;62.79;99290.20;106386;1274;25454;-85
2022/08/02 08:01:21;;;;;;;5.10;1.10;;;;;;;24.07;62.45;99291.14;106331;1274;23980;-87
2022/08/02 08:03:56;;;;;;;4.00;1.30;;;;;;;24.09;62.74;99287.85;106420;1274;22576;-87
2022/08/02 08:06:32;;;;;;;4.80;1.30;;;;;;;24.26;62.96;99286.80;106322;1274;22528;-89
2022/08/02 08:09:02;;;;;;;4.10;1.10;;;;;;;24.49;62.52;99288.84;106330;1274;24266;-89
2022/08/02 08:11:37;;;;;;;3.90;1.20;;;;;;;24.45;61.99;99289.44;106417;1274;25301;-86
2022/08/02 08:14:17;;;;;;;3.00;1.30;;;;;;;24.47;61.97;99289.95;106145;1277;22541;-86
2022/08/02 08:17:02;;;;;;;2.60;1.10;;;;;;;24.55;61.77;99292.39;106207;1274;22443;-88
2022/08/02 08:19:42;;;;;;;4.10;1.00;;;;;;;24.48;61.04;99291.73;106072;1275;22543;-85
2022/08/02 08:22:14;;;;;;;3.80;1.30;;;;;;;24.30;61.05;99294.44;106341;1275;22569;-88
2022/08/02 08:24:46;;;;;;;3.90;1.40;;;;;;;24.21;61.31;99293.20;106428;1274;22652;-87
2022/08/02 08:27:21;;;;;;;4.10;1.00;;;;;;;24.27;61.30;99295.20;106326;1274;25360;-86
2022/08/02 08:30:03;;;;;;;2.80;1.10;;;;;;;24.32;60.96;99291.70;106229;1274;22532;-87
2022/08/02 08:32:50;;;;;;;4.40;1.20;;;;;;;24.53;61.66;99296.08;106135;1275;22539;-86
2022/08/02 08:35:34;;;;;;;6.40;1.50;;;;;;;24.70;61.60;99293.88;106285;1274;25882;-87
2022/08/02 08:38:05;;;;;;;3.80;1.10;;;;;;;25.00;61.42;99295.37;106393;1273;22686;-89
2022/08/02 08:40:41;;;;;;;3.00;1.00;;;;;;;25.29;61.39;99296.79;106297;1274;22525;-91
2022/08/02 08:43:22;;;;;;;2.30;1.00;;;;;;;25.54;60.65;99296.95;106315;1274;25448;-88
2022/08/02 08:46:11;;;;;;;3.30;1.30;;;;;;;25.81;61.10;99295.61;106393;1274;24286;-86
2022/08/02 08:49:25;;;;;;;5.70;1.00;;;;;;;26.04;59.99;99293.96;106316;1275;22553;-90
2022/08/02 08:52:33;;;;;;;2.20;0.90;;;;;;;25.61;59.30;99296.55;106350;1274;22559;-86
2022/08/02 08:55:15;;;;;;;5.00;0.90;;;;;;;25.07;59.99;99299.52;106392;1275;22538;-88
2022/08/02 08:58:12;;;;;;;3.60;1.10;;;;;;;25.14;60.35;99303.91;106163;1277;24769;-86
2022/08/02 09:01:22;;;;;;;;;;;;;;;;;;;;;
2022/08/02 09:04:13;;;;;;;5.20;1.00;;;;;;;25.95;60.03;99296.95;105807;1280;22583;-86
2022/08/02 09:07:29;;;;;;;;;;;;;;;;;;;;;
2022/08/02 09:11:13;;;;;;;;;;;;;;;;;;;;;
2022/08/02 09:14:01;;;;;;;3.10;1.10;;;;;;;26.18;58.76;99302.73;105379;1286;22576;-84
2022/08/02 09:17:35;;;;;;;4.30;1.30;;;;;;;26.42;59.35;99305.11;105342;1286;22563;-85
2022/08/02 09:21:03;;;;;;;;;;;;;;;;;;;;;
2022/08/02 09:24:10;;;;;;;;;;;;;;;;;;;;;
2022/08/02 09:26:47;;;;;;;4.40;1.30;;;;;;;26.77;57.99;99304.46;104251;1295;25412;-84
2022/08/02 09:29:35;;;;;;;3.60;1.20;;;;;;;26.87;58.16;99301.21;104407;1294;25446;-85
2022/08/02 09:32:28;;;;;;;4.10;1.20;;;;;;;26.85;57.67;99299.45;104544;1294;22592;-83
2022/08/02 09:35:16;;;;;;;;;;;;;;;;;;;;;
2022/08/02 09:38:11;;;;;;;5.50;1.40;;;;;;;26.98;57.55;99300.38;104618;1294;22704;-85
2022/08/02 09:40:59;;;;;;;4.90;1.50;;;;;;;26.84;57.27;99301.77;105422;1290;22624;-86
2022/08/02 09:43:51;;;;;;;5.60;1.30;;;;;;;26.89;57.36;99299.88;105557;1287;22879;-83
2022/08/02 09:46:50;;;;;;;7.90;1.40;;;;;;;27.09;57.73;99295.73;105347;1285;23372;-84
2022/08/02 09:49:48;;;;;;;4.60;1.10;;;;;;;27.57;57.81;99295.05;105993;1281;22586;-89
2022/08/02 09:52:57;;;;;;;4.90;1.00;;;;;;;27.74;56.44;99295.41;105772;1281;24391;-90
2022/08/02 09:55:33;;;;;;;4.00;1.20;;;;;;;27.67;56.02;99300.56;107388;1280;22590;-86
2022/08/02 09:58:51;;;;;;;3.00;1.00;;;;;;;27.34;55.72;99293.23;105778;1281;22718;-85
2022/08/02 10:02:19;;;;;;;2.90;1.40;;;;;;;27.28;56.04;99297.25;106533;1274;22606;-86
2022/08/02 10:04:55;;;;;;;5.10;1.30;;;;;;;27.36;55.63;99287.84;107457;1271;22522;-86
2022/08/02 10:07:31;;;;;;;4.40;1.10;;;;;;;27.44;56.13;99284.36;106452;1274;25295;-86
2022/08/02 10:10:01;;;;;;;2.70;1.00;;;;;;;27.77;55.36;99283.07;106486;1274;23675;-85
2022/08/02 10:12:31;;;;;;;4.80;1.30;;;;;;;27.80;55.17;99281.63;106327;1274;22533;-85
2022/08/02 10:15:03;;;;;;;3.40;1.40;;;;;;;27.90;55.23;99279.77;106355;1274;23528;-87
2022/08/02 10:17:37;;;;;;;3.70;1.10;;;;;;;27.90;54.53;99276.27;106448;1274;22541;-85
2022/08/02 10:20:13;;;;;;;3.50;1.40;;;;;;;27.83;54.70;99277.61;106511;1274;22685;-85
2022/08/02 10:22:45;;;;;;;3.10;1.10;;;;;;;28.08;55.66;99273.91;106171;1274;24217;-85
2022/08/02 10:25:21;;;;;;;3.70;1.20;;;;;;;28.50;55.00;99270.40;106161;1272;25536;-89
2022/08/02 10:27:56;;;;;;;4.90;1.20;;;;;;;28.47;54.61;99269.92;106257;1271;22525;-86
2022/08/02 10:30:47;;;;;;;3.40;1.00;;;;;;;28.02;54.13;99271.10;106461;1274;24281;-87
2022/08/02 10:33:18;;;;;;;5.60;1.40;;;;;;;27.50;54.35;99273.34;106330;1274;24278;-87
2022/08/02 10:35:53;;;;;;;4.60;1.00;;;;;;;27.23;54.21;99275.09;106529;1271;22537;-85
2022/08/02 10:38:27;;;;;;;4.40;1.10;;;;;;;27.18;54.26;99279.79;106227;1274;23926;-86
2022/08/02 10:41:02;;;;;;;3.50;1.10;;;;;;;27.33;54.25;99278.48;106233;1274;22720;-85
2022/08/02 10:43:52;;;;;;;4.80;1.20;;;;;;;27.38;54.03;99273.98;106058;1274;22603;-86
2022/08/02 10:46:36;;;;;;;4.00;1.30;;;;;;;27.18;54.33;99277.98;106254;1274;22769;-86
2022/08/02 10:49:11;;;;;;;3.50;1.20;;;;;;;27.16;54.24;99273.80;106132;1274;25465;-86
2022/08/02 10:52:11;;;;;;;4.80;1.30;;;;;;;27.34;53.89;99268.77;106194;1274;22768;-85
2022/08/02 10:55:07;;;;;;;3.60;1.10;;;;;;;27.46;53.39;99266.16;106072;1275;22553;-85
2022/08/02 10:57:44;;;;;;;6.60;1.40;;;;;;;27.51;53.15;99267.51;106058;1274;22570;-85
2022/08/02 11:00:26;;;;;;;3.20;1.00;;;;;;;27.71;53.10;99265.02;106266;1274;22574;-88
2022/08/02 11:03:36;;;;;;;5.70;1.30;;;;;;;27.93;52.97;99259.76;106164;1274;26575;-90
2022/08/02 11:06:14;;;;;;;3.60;1.20;;;;;;;28.11;53.05;99256.66;106231;1274;22620;-89
2022/08/02 11:08:55;;;;;;;6.90;1.10;;;;;;;28.37;52.64;99252.58;106299;1274;23273;-87
2022/08/02 11:11:29;;;;;;;4.60;1.30;;;;;;;28.57;52.94;99249.61;106398;1274;22757;-86
2022/08/02 11:14:07;;;;;;;7.20;1.40;;;;;;;28.31;52.19;99253.83;106290;1274;22548;-86
2022/08/02 11:16:56;;;;;;;2.70;1.00;;;;;;;27.92;51.89;99254.09;106291;1274;24280;-86
2022/08/02 11:19:27;;;;;;;6.60;1.00;;;;;;;27.54;51.96;99259.92;106275;1274;25177;-87
2022/08/02 11:22:08;;;;;;;2.60;1.30;;;;;;;27.13;51.87;99257.98;105998;1274;25563;-84
2022/08/02 11:24:47;;;;;;;4.40;1.30;;;;;;;26.75;52.09;99255.52;106245;1274;23384;-86
2022/08/02 11:27:29;;;;;;;6.40;1.30;;;;;;;26.79;52.34;99248.10;106660;1272;22889;-86
2022/08/02 11:30:24;;;;;;;6.90;1.50;;;;;;;26.62;52.08;99249.48;107088;1274;22553;-86
2022/08/02 11:33:01;;;;;;;4.80;1.40;;;;;;;26.72;52.23;99249.88;106214;1274;24216;-86
2022/08/02 11:36:01;;;;;;;5.40;1.30;;;;;;;27.03;52.67;99252.88;106591;1274;22573;-85
2022/08/02 11:39:57;;;;;;;;;;;;;;;;;;;;;
2022/08/02 11:42:49;;;;;;;3.60;1.10;;;;;;;27.79;51.91;99245.28;106224;1277;22630;-85
2022/08/02 11:45:40;;;;;;;8.60;1.40;;;;;;;28.00;51.65;99238.66;105880;1277;23280;-86
2022/08/02 11:52:17;;;;;;;5.80;1.40;;;;;;;28.21;51.08;99236.09;106434;1277;24164;-85
2022/08/02 11:56:05;;;;;;;;;;;;;;;;;;;;;
2022/08/02 11:59:15;;;;;;;3.50;1.20;;;;;;;28.31;49.74;99236.97;106815;1277;24221;-85
2022/08/02 12:02:05;;;;;;;3.60;1.10;;;;;;;28.32;50.73;99232.30;106598;1277;22648;-86
2022/08/02 12:04:36;;;;;;;3.70;1.30;;;;;;;28.57;50.23;99232.67;105954;1277;24231;-87
2022/08/02 12:07:12;;;;;;;5.20;1.30;;;;;;;28.62;50.40;99230.31;106009;1277;25241;-86
2022/08/02 12:09:42;;;;;;;4.00;1.20;;;;;;;28.36;49.98;99228.54;105846;1278;24511;-87
2022/08/02 12:13:31;;;;;;;3.60;1.40;;;;;;;28.11;49.83;99236.02;106306;1277;23525;-88
2022/08/02 12:19:51;;;;;;;4.60;1.30;;;;;;;28.22;50.27;99227.16;106533;1274;22559;-84
2022/08/02 12:22:38;;;;;;;2.70;1.10;;;;;;;28.52;50.03;99226.41;106829;1271;22606;-85
2022/08/02 12:25:37;;;;;;;;;;;;;;;;;;;;;
2022/08/02 12:31:13;;;;;;;4.10;1.10;;;;;;;28.05;49.37;99219.02;106296;1271;23043;-87
2022/08/02 12:33:48;;;;;;;4.00;1.30;;;;;;;28.11;49.61;99217.85;106388;1271;22700;-86
2022/08/02 12:36:30;;;;;;;4.80;1.20;;;;;;;28.39;49.60;99219.56;106483;1274;22573;-86
2022/08/02 12:39:15;;;;;;;4.50;1.30;;;;;;;28.64;49.74;99224.84;106493;1271;24403;-89
2022/08/02 12:42:03;;;;;;;8.80;1.30;;;;;;;28.91;49.47;99225.65;106572;1271;22543;-90
2022/08/02 12:44:58;;;;;;;5.00;1.90;;;;;;;29.09;49.33;99220.80;106384;1271;22553;-89
2022/08/02 12:47:45;;;;;;;5.70;1.30;;;;;;;29.29;49.36;99220.16;106497;1271;22544;-87
2022/08/02 12:50:42;;;;;;;5.80;1.30;;;;;;;29.48;49.07;99219.71;106476;1271;22532;-87
2022/08/02 12:53:37;;;;;;;28.70;2.90;;;;;;;29.71;49.23;99210.45;106490;1271;25286;-88
2022/08/02 12:56:31;;;;;;;5.20;1.20;;;;;;;29.78;47.87;99208.71;106501;1271;23258;-86
2022/08/02 12:59:09;;;;;;;8.50;1.30;;;;;;;29.41;47.83;99210.02;106504;1271;24395;-85
2022/08/02 13:01:52;;;;;;;4.30;1.30;;;;;;;29.18;47.68;99210.42;106415;1271;24142;-87
2022/08/02 13:04:28;;;;;;;7.30;1.10;;;;;;;29.00;47.72;99207.34;106269;1271;24280;-89
2022/08/02 13:07:03;;;;;;;7.10;1.10;;;;;;;28.94;47.91;99205.58;106171;1271;22558;-85
2022/08/02 13:09:45;;;;;;;2.50;0.80;;;;;;;29.01;47.79;99203.27;106358;1271;23340;-83
2022/08/02 13:12:18;;;;;;;3.60;1.10;;;;;;;28.98;47.35;99204.27;106207;1271;22855;-84
2022/08/02 13:14:51;;;;;;;2.50;1.20;;;;;;;28.91;47.59;99208.27;106237;1271;22555;-84
2022/08/02 13:17:28;;;;;;;6.50;1.90;;;;;;;29.02;47.45;99198.87;106494;1271;22543;-86
2022/08/02 13:20:06;;;;;;;8.80;3.70;;;;;;;29.11;47.09;99196.53;106293;1271;23034;-87
2022/08/02 13:22:46;;;;;;;5.00;1.90;;;;;;;29.02;46.39;99190.88;106346;1271;26605;-87
2022/08/02 13:25:35;;;;;;;6.50;2.40;;;;;;;28.89;46.99;99189.71;106339;1271;25311;-86
2022/08/02 13:28:29;;;;;;;4.90;1.30;;;;;;;28.89;46.59;99184.92;106388;1271;22567;-88
2022/08/02 13:30:59;;;;;;;7.20;1.30;;;;;;;28.88;46.75;99182.48;106253;1272;22661;-89
2022/08/02 13:33:27;;;;;;;4.60;1.40;;;;;;;29.08;47.43;99172.23;106342;1271;22695;-86
2022/08/02 13:35:59;;;;;;;5.70;1.50;;;;;;;29.23;46.89;99168.22;106300;1271;22817;-87
2022/08/02 13:38:31;;;;;;;3.90;0.80;;;;;;;29.30;46.48;99171.52;106327;1271;22567;-85
2022/08/02 13:41:12;;;;;;;3.60;0.90;;;;;;;29.22;46.57;99171.80;106075;1271;22543;-84
2022/08/02 13:43:50;;;;;;;2.80;0.90;;;;;;;28.96;46.05;99169.44;106338;1271;22560;-87
2022/08/02 13:46:20;;;;;;;3.70;1.10;;;;;;;29.02;46.20;99168.67;106010;1272;22543;-86